sensor_id;sensor_type;location;lat;lon;timestamp;P1;durP1;ratioP1;P2;durP2;ratioP2
2267;SDS011;11052;43.338;25.502;2023-11-21T00:00:14;0.80;;;0.67;;
2267;SDS011;11052;43.338;25.502;2023-11-21T00:02:41;0.80;;;0.60;;
2267;SDS011;11052;43.338;25.502;2023-11-21T00:05:12;0.90;;;0.70;;
2267;SDS011;11052;43.338;25.502;2023-11-21T00:07:41;0.90;;;0.80;;
2267;SDS011;11052;43.338;25.502;2023-11-21T00:10:10;0.80;;;0.70;;
2267;SDS011;11052;43.338;25.502;2023-11-21T00:12:39;0.80;;;0.73;;
2267;SDS011;11052;43.338;25.502;2023-11-21T00:15:07;0.80;;;0.60;;
2267;SDS011;11052;43.338;25.502;2023-11-21T00:17:36;0.90;;;0.77;;
2267;SDS011;11052;43.338;25.502;2023-11-21T00:20:04;0.87;;;0.73;;
2267;SDS011;11052;43.338;25.502;2023-11-21T00:22:32;0.80;;;0.60;;
2267;SDS011;11052;43.338;25.502;2023-11-21T00:25:00;0.80;;;0.70;;
2267;SDS011;11052;43.338;25.502;2023-11-21T00:27:30;0.80;;;0.60;;
2267;SDS011;11052;43.338;25.502;2023-11-21T00:29:57;0.90;;;0.80;;
2267;SDS011;11052;43.338;25.502;2023-11-21T00:32:24;0.80;;;0.70;;
2267;SDS011;11052;43.338;25.502;2023-11-21T00:34:51;0.80;;;0.70;;
2267;SDS011;11052;43.338;25.502;2023-11-21T00:37:19;0.80;;;0.70;;
2267;SDS011;11052;43.338;25.502;2023-11-21T00:39:47;0.80;;;0.70;;
2267;SDS011;11052;43.338;25.502;2023-11-21T00:42:14;0.80;;;0.70;;
2267;SDS011;11052;43.338;25.502;2023-11-21T00:44:42;0.80;;;0.60;;
2267;SDS011;11052;43.338;25.502;2023-11-21T00:47:09;0.87;;;0.70;;
2267;SDS011;11052;43.338;25.502;2023-11-21T00:49:37;0.80;;;0.63;;
2267;SDS011;11052;43.338;25.502;2023-11-21T00:52:05;0.80;;;0.70;;
2267;SDS011;11052;43.338;25.502;2023-11-21T00:54:33;1.20;;;0.70;;
2267;SDS011;11052;43.338;25.502;2023-11-21T00:57:00;0.87;;;0.70;;
2267;SDS011;11052;43.338;25.502;2023-11-21T00:59:27;0.80;;;0.60;;
2267;SDS011;11052;43.338;25.502;2023-11-21T01:01:56;0.80;;;0.63;;
2267;SDS011;11052;43.338;25.502;2023-11-21T01:04:25;0.80;;;0.50;;
2267;SDS011;11052;43.338;25.502;2023-11-21T01:06:52;1.17;;;1.03;;
2267;SDS011;11052;43.338;25.502;2023-11-21T01:09:20;0.80;;;0.80;;
2267;SDS011;11052;43.338;25.502;2023-11-21T01:11:47;0.80;;;0.70;;
2267;SDS011;11052;43.338;25.502;2023-11-21T01:14:14;1.83;;;1.63;;
2267;SDS011;11052;43.338;25.502;2023-11-21T01:16:42;0.93;;;0.83;;
2267;SDS011;11052;43.338;25.502;2023-11-21T01:19:11;0.80;;;0.70;;
2267;SDS011;11052;43.338;25.502;2023-11-21T01:21:38;0.80;;;0.70;;
2267;SDS011;11052;43.338;25.502;2023-11-21T01:24:06;1.20;;;1.10;;
2267;SDS011;11052;43.338;25.502;2023-11-21T01:26:33;0.80;;;0.70;;
2267;SDS011;11052;43.338;25.502;2023-11-21T01:29:01;0.90;;;0.80;;
2267;SDS011;11052;43.338;25.502;2023-11-21T01:31:28;0.80;;;0.70;;
2267;SDS011;11052;43.338;25.502;2023-11-21T01:33:55;1.50;;;1.40;;
2267;SDS011;11052;43.338;25.502;2023-11-21T01:36:29;0.80;;;0.70;;
2267;SDS011;11052;43.338;25.502;2023-11-21T01:38:57;1.00;;;0.90;;
2267;SDS011;11052;43.338;25.502;2023-11-21T01:41:25;0.83;;;0.70;;
2267;SDS011;11052;43.338;25.502;2023-11-21T01:43:53;0.80;;;0.70;;
2267;SDS011;11052;43.338;25.502;2023-11-21T01:46:21;1.00;;;0.83;;
2267;SDS011;11052;43.338;25.502;2023-11-21T01:48:50;0.80;;;0.70;;
2267;SDS011;11052;43.338;25.502;2023-11-21T01:51:18;0.80;;;0.70;;
2267;SDS011;11052;43.338;25.502;2023-11-21T01:53:47;1.73;;;0.90;;
2267;SDS011;11052;43.338;25.502;2023-11-21T01:56:14;0.83;;;0.63;;
2267;SDS011;11052;43.338;25.502;2023-11-21T01:58:42;0.90;;;0.70;;
2267;SDS011;11052;43.338;25.502;2023-11-21T02:01:12;1.03;;;0.93;;
2267;SDS011;11052;43.338;25.502;2023-11-21T02:03:39;0.80;;;0.70;;
2267;SDS011;11052;43.338;25.502;2023-11-21T02:06:07;0.90;;;0.70;;
2267;SDS011;11052;43.338;25.502;2023-11-21T02:08:35;3.17;;;1.33;;
2267;SDS011;11052;43.338;25.502;2023-11-21T02:11:04;0.90;;;0.80;;
2267;SDS011;11052;43.338;25.502;2023-11-21T02:13:32;0.80;;;0.77;;
2267;SDS011;11052;43.338;25.502;2023-11-21T02:16:00;0.90;;;0.70;;
2267;SDS011;11052;43.338;25.502;2023-11-21T02:18:27;0.90;;;0.70;;
2267;SDS011;11052;43.338;25.502;2023-11-21T02:20:55;0.90;;;0.70;;
2267;SDS011;11052;43.338;25.502;2023-11-21T02:23:24;1.30;;;0.90;;
2267;SDS011;11052;43.338;25.502;2023-11-21T02:25:54;0.80;;;0.70;;
2267;SDS011;11052;43.338;25.502;2023-11-21T02:28:21;0.80;;;0.70;;
2267;SDS011;11052;43.338;25.502;2023-11-21T02:30:51;0.80;;;0.60;;
2267;SDS011;11052;43.338;25.502;2023-11-21T02:33:21;0.80;;;0.70;;
2267;SDS011;11052;43.338;25.502;2023-11-21T02:35:48;0.80;;;0.60;;
2267;SDS011;11052;43.338;25.502;2023-11-21T02:38:16;0.80;;;0.70;;
2267;SDS011;11052;43.338;25.502;2023-11-21T02:40:45;1.13;;;1.03;;
2267;SDS011;11052;43.338;25.502;2023-11-21T02:43:12;0.83;;;0.70;;
2267;SDS011;11052;43.338;25.502;2023-11-21T02:45:39;0.83;;;0.80;;
2267;SDS011;11052;43.338;25.502;2023-11-21T02:48:07;0.80;;;0.70;;
2267;SDS011;11052;43.338;25.502;2023-11-21T02:50:35;0.80;;;0.70;;
2267;SDS011;11052;43.338;25.502;2023-11-21T02:53:02;0.80;;;0.80;;
2267;SDS011;11052;43.338;25.502;2023-11-21T02:55:31;0.90;;;0.70;;
2267;SDS011;11052;43.338;25.502;2023-11-21T02:58:01;1.00;;;0.90;;
2267;SDS011;11052;43.338;25.502;2023-11-21T03:00:30;1.23;;;1.00;;
2267;SDS011;11052;43.338;25.502;2023-11-21T03:02:57;0.80;;;0.63;;
2267;SDS011;11052;43.338;25.502;2023-11-21T03:05:25;0.90;;;0.80;;
2267;SDS011;11052;43.338;25.502;2023-11-21T03:07:54;0.80;;;0.70;;
2267;SDS011;11052;43.338;25.502;2023-11-21T03:10:22;3.80;;;3.60;;
2267;SDS011;11052;43.338;25.502;2023-11-21T03:12:50;1.37;;;1.03;;
2267;SDS011;11052;43.338;25.502;2023-11-21T03:15:19;0.87;;;0.70;;
2267;SDS011;11052;43.338;25.502;2023-11-21T03:17:46;0.80;;;0.60;;
2267;SDS011;11052;43.338;25.502;2023-11-21T03:20:14;0.90;;;0.70;;
2267;SDS011;11052;43.338;25.502;2023-11-21T03:22:41;0.80;;;0.60;;
2267;SDS011;11052;43.338;25.502;2023-11-21T03:25:09;0.80;;;0.50;;
2267;SDS011;11052;43.338;25.502;2023-11-21T03:27:37;0.80;;;0.60;;
2267;SDS011;11052;43.338;25.502;2023-11-21T03:30:07;0.80;;;0.60;;
2267;SDS011;11052;43.338;25.502;2023-11-21T03:32:37;1.10;;;1.00;;
2267;SDS011;11052;43.338;25.502;2023-11-21T03:35:05;1.30;;;1.20;;
2267;SDS011;11052;43.338;25.502;2023-11-21T03:37:32;0.80;;;0.70;;
2267;SDS011;11052;43.338;25.502;2023-11-21T03:40:00;2.90;;;1.87;;
2267;SDS011;11052;43.338;25.502;2023-11-21T03:42:29;0.80;;;0.63;;
2267;SDS011;11052;43.338;25.502;2023-11-21T03:44:56;0.80;;;0.70;;
2267;SDS011;11052;43.338;25.502;2023-11-21T03:47:23;0.80;;;0.70;;
2267;SDS011;11052;43.338;25.502;2023-11-21T03:49:52;0.80;;;0.70;;
2267;SDS011;11052;43.338;25.502;2023-11-21T03:52:19;0.90;;;0.80;;
2267;SDS011;11052;43.338;25.502;2023-11-21T03:54:46;2.40;;;1.10;;
2267;SDS011;11052;43.338;25.502;2023-11-21T03:57:13;0.80;;;0.77;;
2267;SDS011;11052;43.338;25.502;2023-11-21T03:59:40;0.80;;;0.70;;
2267;SDS011;11052;43.338;25.502;2023-11-21T04:02:08;1.10;;;1.00;;
2267;SDS011;11052;43.338;25.502;2023-11-21T04:04:35;1.77;;;0.80;;
2267;SDS011;11052;43.338;25.502;2023-11-21T04:07:04;0.80;;;0.70;;
2267;SDS011;11052;43.338;25.502;2023-11-21T04:09:35;0.80;;;0.70;;
2267;SDS011;11052;43.338;25.502;2023-11-21T04:12:02;0.80;;;0.53;;
2267;SDS011;11052;43.338;25.502;2023-11-21T04:14:29;0.80;;;0.70;;
2267;SDS011;11052;43.338;25.502;2023-11-21T04:16:57;0.80;;;0.70;;
2267;SDS011;11052;43.338;25.502;2023-11-21T04:19:24;0.83;;;0.70;;
2267;SDS011;11052;43.338;25.502;2023-11-21T04:21:51;1.00;;;0.70;;
2267;SDS011;11052;43.338;25.502;2023-11-21T04:24:20;0.80;;;0.70;;
2267;SDS011;11052;43.338;25.502;2023-11-21T04:26:47;1.40;;;1.30;;
2267;SDS011;11052;43.338;25.502;2023-11-21T04:29:14;0.90;;;0.70;;
2267;SDS011;11052;43.338;25.502;2023-11-21T04:31:41;1.70;;;1.60;;
2267;SDS011;11052;43.338;25.502;2023-11-21T04:34:08;0.80;;;0.67;;
2267;SDS011;11052;43.338;25.502;2023-11-21T04:36:36;0.90;;;0.70;;
2267;SDS011;11052;43.338;25.502;2023-11-21T04:39:03;0.90;;;0.70;;
2267;SDS011;11052;43.338;25.502;2023-11-21T04:41:33;0.80;;;0.70;;
2267;SDS011;11052;43.338;25.502;2023-11-21T04:44:01;0.90;;;0.80;;
2267;SDS011;11052;43.338;25.502;2023-11-21T04:46:30;0.90;;;0.70;;
2267;SDS011;11052;43.338;25.502;2023-11-21T04:48:57;0.90;;;0.70;;
2267;SDS011;11052;43.338;25.502;2023-11-21T04:51:24;0.80;;;0.70;;
2267;SDS011;11052;43.338;25.502;2023-11-21T04:53:52;0.90;;;0.70;;
2267;SDS011;11052;43.338;25.502;2023-11-21T04:56:19;0.87;;;0.70;;
2267;SDS011;11052;43.338;25.502;2023-11-21T04:58:48;0.93;;;0.83;;
2267;SDS011;11052;43.338;25.502;2023-11-21T05:01:15;0.80;;;0.80;;
2267;SDS011;11052;43.338;25.502;2023-11-21T05:03:43;1.00;;;0.90;;
2267;SDS011;11052;43.338;25.502;2023-11-21T05:06:10;0.90;;;0.80;;
2267;SDS011;11052;43.338;25.502;2023-11-21T05:08:37;0.90;;;0.70;;
2267;SDS011;11052;43.338;25.502;2023-11-21T05:11:04;1.00;;;0.80;;
2267;SDS011;11052;43.338;25.502;2023-11-21T05:13:33;0.87;;;0.80;;
2267;SDS011;11052;43.338;25.502;2023-11-21T05:16:02;1.10;;;1.00;;
2267;SDS011;11052;43.338;25.502;2023-11-21T05:18:32;0.80;;;0.70;;
2267;SDS011;11052;43.338;25.502;2023-11-21T05:20:59;0.80;;;0.70;;
2267;SDS011;11052;43.338;25.502;2023-11-21T05:23:27;0.80;;;0.70;;
2267;SDS011;11052;43.338;25.502;2023-11-21T05:25:54;0.80;;;0.70;;
2267;SDS011;11052;43.338;25.502;2023-11-21T05:28:22;0.80;;;0.70;;
2267;SDS011;11052;43.338;25.502;2023-11-21T05:30:49;1.30;;;1.20;;
2267;SDS011;11052;43.338;25.502;2023-11-21T05:33:18;0.80;;;0.67;;
2267;SDS011;11052;43.338;25.502;2023-11-21T05:35:45;0.80;;;0.50;;
2267;SDS011;11052;43.338;25.502;2023-11-21T05:38:13;0.90;;;0.80;;
2267;SDS011;11052;43.338;25.502;2023-11-21T05:40:41;0.83;;;0.70;;
2267;SDS011;11052;43.338;25.502;2023-11-21T05:43:09;0.90;;;0.80;;
2267;SDS011;11052;43.338;25.502;2023-11-21T05:45:37;1.53;;;1.43;;
2267;SDS011;11052;43.338;25.502;2023-11-21T05:48:04;1.27;;;0.80;;
2267;SDS011;11052;43.338;25.502;2023-11-21T05:50:33;0.97;;;0.87;;
2267;SDS011;11052;43.338;25.502;2023-11-21T05:53:00;0.97;;;0.80;;
2267;SDS011;11052;43.338;25.502;2023-11-21T05:55:27;0.80;;;0.70;;
2267;SDS011;11052;43.338;25.502;2023-11-21T05:57:55;1.00;;;0.90;;
2267;SDS011;11052;43.338;25.502;2023-11-21T06:00:22;0.80;;;0.60;;
2267;SDS011;11052;43.338;25.502;2023-11-21T06:02:50;0.80;;;0.70;;
2267;SDS011;11052;43.338;25.502;2023-11-21T06:05:19;1.00;;;0.90;;
2267;SDS011;11052;43.338;25.502;2023-11-21T06:07:51;0.83;;;0.70;;
2267;SDS011;11052;43.338;25.502;2023-11-21T06:10:19;0.80;;;0.63;;
2267;SDS011;11052;43.338;25.502;2023-11-21T06:12:47;0.80;;;0.70;;
2267;SDS011;11052;43.338;25.502;2023-11-21T06:15:14;0.83;;;0.70;;
2267;SDS011;11052;43.338;25.502;2023-11-21T06:17:44;0.80;;;0.70;;
2267;SDS011;11052;43.338;25.502;2023-11-21T06:20:14;0.80;;;0.70;;
2267;SDS011;11052;43.338;25.502;2023-11-21T06:22:44;0.90;;;0.80;;
2267;SDS011;11052;43.338;25.502;2023-11-21T06:25:14;1.10;;;1.00;;
2267;SDS011;11052;43.338;25.502;2023-11-21T06:27:43;0.80;;;0.50;;
2267;SDS011;11052;43.338;25.502;2023-11-21T06:30:13;0.90;;;0.80;;
2267;SDS011;11052;43.338;25.502;2023-11-21T06:32:40;1.20;;;1.10;;
2267;SDS011;11052;43.338;25.502;2023-11-21T06:35:10;0.80;;;0.80;;
2267;SDS011;11052;43.338;25.502;2023-11-21T06:37:38;2.17;;;1.10;;
2267;SDS011;11052;43.338;25.502;2023-11-21T06:40:06;1.30;;;1.10;;
2267;SDS011;11052;43.338;25.502;2023-11-21T06:42:37;1.43;;;1.33;;
2267;SDS011;11052;43.338;25.502;2023-11-21T06:45:05;0.80;;;0.60;;
2267;SDS011;11052;43.338;25.502;2023-11-21T06:47:32;1.00;;;0.90;;
2267;SDS011;11052;43.338;25.502;2023-11-21T06:50:00;1.00;;;0.90;;
2267;SDS011;11052;43.338;25.502;2023-11-21T06:52:27;0.83;;;0.83;;
2267;SDS011;11052;43.338;25.502;2023-11-21T06:54:54;1.77;;;1.20;;
2267;SDS011;11052;43.338;25.502;2023-11-21T06:57:22;1.23;;;1.13;;
2267;SDS011;11052;43.338;25.502;2023-11-21T06:59:51;1.13;;;1.03;;
2267;SDS011;11052;43.338;25.502;2023-11-21T07:02:18;0.90;;;0.70;;
2267;SDS011;11052;43.338;25.502;2023-11-21T07:04:45;1.10;;;1.00;;
2267;SDS011;11052;43.338;25.502;2023-11-21T07:07:13;0.90;;;0.80;;
2267;SDS011;11052;43.338;25.502;2023-11-21T07:09:40;1.10;;;1.00;;
2267;SDS011;11052;43.338;25.502;2023-11-21T07:12:07;1.30;;;1.20;;
2267;SDS011;11052;43.338;25.502;2023-11-21T07:14:36;0.90;;;0.70;;
2267;SDS011;11052;43.338;25.502;2023-11-21T07:17:05;1.27;;;1.10;;
2267;SDS011;11052;43.338;25.502;2023-11-21T07:19:33;1.50;;;1.40;;
2267;SDS011;11052;43.338;25.502;2023-11-21T07:22:01;0.90;;;0.80;;
2267;SDS011;11052;43.338;25.502;2023-11-21T07:24:28;0.80;;;0.60;;
2267;SDS011;11052;43.338;25.502;2023-11-21T07:26:57;2.10;;;2.00;;
2267;SDS011;11052;43.338;25.502;2023-11-21T07:29:24;0.80;;;0.57;;
2267;SDS011;11052;43.338;25.502;2023-11-21T07:31:52;1.00;;;0.90;;
2267;SDS011;11052;43.338;25.502;2023-11-21T07:34:21;1.13;;;1.03;;
2267;SDS011;11052;43.338;25.502;2023-11-21T07:36:48;0.80;;;0.60;;
2267;SDS011;11052;43.338;25.502;2023-11-21T07:39:15;1.90;;;1.80;;
2267;SDS011;11052;43.338;25.502;2023-11-21T07:41:42;0.90;;;0.73;;
2267;SDS011;11052;43.338;25.502;2023-11-21T07:44:14;1.40;;;1.30;;
2267;SDS011;11052;43.338;25.502;2023-11-21T07:46:42;1.20;;;0.73;;
2267;SDS011;11052;43.338;25.502;2023-11-21T07:49:10;1.50;;;0.83;;
2267;SDS011;11052;43.338;25.502;2023-11-21T07:51:41;1.00;;;0.90;;
2267;SDS011;11052;43.338;25.502;2023-11-21T07:54:08;1.17;;;1.07;;
2267;SDS011;11052;43.338;25.502;2023-11-21T07:56:36;1.17;;;0.90;;
2267;SDS011;11052;43.338;25.502;2023-11-21T07:59:03;1.53;;;1.37;;
2267;SDS011;11052;43.338;25.502;2023-11-21T08:01:31;1.50;;;1.40;;
2267;SDS011;11052;43.338;25.502;2023-11-21T08:03:58;0.87;;;0.80;;
2267;SDS011;11052;43.338;25.502;2023-11-21T08:06:28;1.43;;;1.30;;
2267;SDS011;11052;43.338;25.502;2023-11-21T08:08:57;1.00;;;0.87;;
2267;SDS011;11052;43.338;25.502;2023-11-21T08:11:24;1.77;;;1.67;;
2267;SDS011;11052;43.338;25.502;2023-11-21T08:13:54;1.10;;;1.00;;
2267;SDS011;11052;43.338;25.502;2023-11-21T08:16:22;0.90;;;0.80;;
2267;SDS011;11052;43.338;25.502;2023-11-21T08:18:49;2.93;;;1.67;;
2267;SDS011;11052;43.338;25.502;2023-11-21T08:21:16;1.17;;;1.07;;
2267;SDS011;11052;43.338;25.502;2023-11-21T08:23:44;1.37;;;1.10;;
2267;SDS011;11052;43.338;25.502;2023-11-21T08:26:13;11.47;;;3.87;;
2267;SDS011;11052;43.338;25.502;2023-11-21T08:28:43;1.83;;;1.73;;
2267;SDS011;11052;43.338;25.502;2023-11-21T08:31:11;1.37;;;1.00;;
2267;SDS011;11052;43.338;25.502;2023-11-21T08:33:38;4.10;;;0.97;;
2267;SDS011;11052;43.338;25.502;2023-11-21T08:36:06;1.77;;;1.20;;
2267;SDS011;11052;43.338;25.502;2023-11-21T08:38:36;1.03;;;0.83;;
2267;SDS011;11052;43.338;25.502;2023-11-21T08:41:04;2.17;;;1.47;;
2267;SDS011;11052;43.338;25.502;2023-11-21T08:43:35;1.77;;;1.63;;
2267;SDS011;11052;43.338;25.502;2023-11-21T08:46:04;0.90;;;0.67;;
2267;SDS011;11052;43.338;25.502;2023-11-21T08:48:34;1.37;;;0.80;;
2267;SDS011;11052;43.338;25.502;2023-11-21T08:51:02;1.00;;;0.67;;
2267;SDS011;11052;43.338;25.502;2023-11-21T08:53:30;2.10;;;1.30;;
2267;SDS011;11052;43.338;25.502;2023-11-21T08:55:58;1.10;;;0.80;;
2267;SDS011;11052;43.338;25.502;2023-11-21T08:58:25;1.67;;;0.80;;
2267;SDS011;11052;43.338;25.502;2023-11-21T09:00:54;2.20;;;1.00;;
2267;SDS011;11052;43.338;25.502;2023-11-21T09:03:21;1.50;;;0.90;;
2267;SDS011;11052;43.338;25.502;2023-11-21T09:05:48;2.17;;;1.10;;
2267;SDS011;11052;43.338;25.502;2023-11-21T09:08:15;0.80;;;0.50;;
2267;SDS011;11052;43.338;25.502;2023-11-21T09:10:43;1.20;;;0.93;;
2267;SDS011;11052;43.338;25.502;2023-11-21T09:13:12;0.80;;;0.50;;
2267;SDS011;11052;43.338;25.502;2023-11-21T09:15:43;1.20;;;1.10;;
2267;SDS011;11052;43.338;25.502;2023-11-21T09:18:13;0.80;;;0.60;;
2267;SDS011;11052;43.338;25.502;2023-11-21T09:20:40;2.53;;;0.77;;
2267;SDS011;11052;43.338;25.502;2023-11-21T09:23:09;0.80;;;0.50;;
2267;SDS011;11052;43.338;25.502;2023-11-21T09:25:36;1.93;;;0.90;;
2267;SDS011;11052;43.338;25.502;2023-11-21T09:28:04;1.63;;;0.90;;
2267;SDS011;11052;43.338;25.502;2023-11-21T09:30:33;1.17;;;0.60;;
2267;SDS011;11052;43.338;25.502;2023-11-21T09:33:01;1.03;;;0.80;;
2267;SDS011;11052;43.338;25.502;2023-11-21T09:35:29;1.00;;;0.90;;
2267;SDS011;11052;43.338;25.502;2023-11-21T09:37:56;0.93;;;0.80;;
2267;SDS011;11052;43.338;25.502;2023-11-21T09:40:24;1.03;;;0.70;;
2267;SDS011;11052;43.338;25.502;2023-11-21T09:42:53;2.33;;;1.30;;
2267;SDS011;11052;43.338;25.502;2023-11-21T09:45:25;1.23;;;1.10;;
2267;SDS011;11052;43.338;25.502;2023-11-21T09:47:54;0.87;;;0.70;;
2267;SDS011;11052;43.338;25.502;2023-11-21T09:50:22;0.90;;;0.50;;
2267;SDS011;11052;43.338;25.502;2023-11-21T09:52:57;0.80;;;0.50;;
2267;SDS011;11052;43.338;25.502;2023-11-21T09:55:30;0.90;;;0.60;;
2267;SDS011;11052;43.338;25.502;2023-11-21T09:58:02;4.83;;;0.87;;
2267;SDS011;11052;43.338;25.502;2023-11-21T10:00:33;0.90;;;0.80;;
2267;SDS011;11052;43.338;25.502;2023-11-21T10:03:00;0.80;;;0.60;;
2267;SDS011;11052;43.338;25.502;2023-11-21T10:05:28;0.80;;;0.60;;
2267;SDS011;11052;43.338;25.502;2023-11-21T10:08:00;0.80;;;0.60;;
2267;SDS011;11052;43.338;25.502;2023-11-21T10:10:28;0.80;;;0.60;;
2267;SDS011;11052;43.338;25.502;2023-11-21T10:13:00;0.80;;;0.60;;
2267;SDS011;11052;43.338;25.502;2023-11-21T10:15:31;0.80;;;0.50;;
2267;SDS011;11052;43.338;25.502;2023-11-21T10:18:00;0.90;;;0.60;;
2267;SDS011;11052;43.338;25.502;2023-11-21T10:20:30;0.83;;;0.60;;
2267;SDS011;11052;43.338;25.502;2023-11-21T10:22:59;0.97;;;0.57;;
2267;SDS011;11052;43.338;25.502;2023-11-21T10:25:28;0.80;;;0.50;;
2267;SDS011;11052;43.338;25.502;2023-11-21T10:27:57;1.43;;;0.80;;
2267;SDS011;11052;43.338;25.502;2023-11-21T10:30:31;1.10;;;0.80;;
2267;SDS011;11052;43.338;25.502;2023-11-21T10:33:02;1.77;;;0.70;;
2267;SDS011;11052;43.338;25.502;2023-11-21T10:35:39;0.90;;;0.60;;
2267;SDS011;11052;43.338;25.502;2023-11-21T10:38:13;1.13;;;0.60;;
2267;SDS011;11052;43.338;25.502;2023-11-21T10:40:41;1.03;;;0.60;;
2267;SDS011;11052;43.338;25.502;2023-11-21T10:43:11;0.80;;;0.60;;
2267;SDS011;11052;43.338;25.502;2023-11-21T10:45:40;1.00;;;0.77;;
2267;SDS011;11052;43.338;25.502;2023-11-21T10:48:08;1.00;;;0.70;;
2267;SDS011;11052;43.338;25.502;2023-11-21T10:50:37;1.10;;;0.87;;
2267;SDS011;11052;43.338;25.502;2023-11-21T10:53:04;0.90;;;0.70;;
2267;SDS011;11052;43.338;25.502;2023-11-21T10:55:33;0.90;;;0.60;;
2267;SDS011;11052;43.338;25.502;2023-11-21T10:58:01;0.90;;;0.60;;
2267;SDS011;11052;43.338;25.502;2023-11-21T11:00:30;0.90;;;0.60;;
2267;SDS011;11052;43.338;25.502;2023-11-21T11:02:58;0.90;;;0.57;;
2267;SDS011;11052;43.338;25.502;2023-11-21T11:05:27;1.17;;;0.50;;
2267;SDS011;11052;43.338;25.502;2023-11-21T11:07:58;5.00;;;1.00;;
2267;SDS011;11052;43.338;25.502;2023-11-21T11:10:26;1.27;;;0.90;;
2267;SDS011;11052;43.338;25.502;2023-11-21T11:12:56;0.80;;;0.50;;
2267;SDS011;11052;43.338;25.502;2023-11-21T11:15:25;0.90;;;0.60;;
2267;SDS011;11052;43.338;25.502;2023-11-21T11:17:52;2.23;;;0.83;;
2267;SDS011;11052;43.338;25.502;2023-11-21T11:20:22;1.73;;;0.70;;
2267;SDS011;11052;43.338;25.502;2023-11-21T11:22:56;1.07;;;0.63;;
2267;SDS011;11052;43.338;25.502;2023-11-21T11:25:45;0.80;;;0.50;;
2267;SDS011;11052;43.338;25.502;2023-11-21T11:28:21;0.90;;;0.60;;
2267;SDS011;11052;43.338;25.502;2023-11-21T11:30:59;1.43;;;0.60;;
2267;SDS011;11052;43.338;25.502;2023-11-21T11:33:33;0.80;;;0.50;;
2267;SDS011;11052;43.338;25.502;2023-11-21T11:36:06;0.80;;;0.50;;
2267;SDS011;11052;43.338;25.502;2023-11-21T11:38:44;3.37;;;1.17;;
2267;SDS011;11052;43.338;25.502;2023-11-21T11:41:15;2.40;;;0.73;;
2267;SDS011;11052;43.338;25.502;2023-11-21T11:43:53;0.90;;;0.50;;
2267;SDS011;11052;43.338;25.502;2023-11-21T11:46:21;2.27;;;1.20;;
2267;SDS011;11052;43.338;25.502;2023-11-21T11:49:07;1.20;;;0.83;;
2267;SDS011;11052;43.338;25.502;2023-11-21T11:51:34;3.07;;;0.60;;
2267;SDS011;11052;43.338;25.502;2023-11-21T11:54:02;6.17;;;3.57;;
2267;SDS011;11052;43.338;25.502;2023-11-21T11:56:32;1.60;;;1.43;;
2267;SDS011;11052;43.338;25.502;2023-11-21T11:59:04;4.53;;;2.73;;
2267;SDS011;11052;43.338;25.502;2023-11-21T12:01:34;2.23;;;1.37;;
2267;SDS011;11052;43.338;25.502;2023-11-21T12:06:56;10.70;;;4.70;;
2267;SDS011;11052;43.338;25.502;2023-11-21T12:09:27;8.97;;;5.57;;
2267;SDS011;11052;43.338;25.502;2023-11-21T12:11:55;11.60;;;6.83;;
2267;SDS011;11052;43.338;25.502;2023-11-21T12:14:24;13.02;;;6.03;;
2267;SDS011;11052;43.338;25.502;2023-11-21T12:16:51;14.03;;;7.47;;
2267;SDS011;11052;43.338;25.502;2023-11-21T12:19:19;8.93;;;5.60;;
2267;SDS011;11052;43.338;25.502;2023-11-21T12:21:48;11.43;;;6.10;;
2267;SDS011;11052;43.338;25.502;2023-11-21T12:24:15;5.57;;;2.97;;
2267;SDS011;11052;43.338;25.502;2023-11-21T12:26:43;8.17;;;4.40;;
2267;SDS011;11052;43.338;25.502;2023-11-21T12:29:10;5.00;;;2.50;;
2267;SDS011;11052;43.338;25.502;2023-11-21T12:31:39;4.20;;;3.63;;
2267;SDS011;11052;43.338;25.502;2023-11-21T12:34:07;11.13;;;9.27;;
2267;SDS011;11052;43.338;25.502;2023-11-21T12:36:37;6.03;;;4.60;;
2267;SDS011;11052;43.338;25.502;2023-11-21T12:39:05;2.80;;;1.87;;
2267;SDS011;11052;43.338;25.502;2023-11-21T12:41:34;2.80;;;2.03;;
2267;SDS011;11052;43.338;25.502;2023-11-21T12:44:01;1.87;;;1.43;;
2267;SDS011;11052;43.338;25.502;2023-11-21T12:46:29;1.10;;;0.93;;
2267;SDS011;11052;43.338;25.502;2023-11-21T12:49:00;3.63;;;2.10;;
2267;SDS011;11052;43.338;25.502;2023-11-21T12:51:27;6.83;;;1.23;;
2267;SDS011;11052;43.338;25.502;2023-11-21T12:53:55;3.07;;;1.10;;
2267;SDS011;11052;43.338;25.502;2023-11-21T12:56:23;3.10;;;1.33;;
2267;SDS011;11052;43.338;25.502;2023-11-21T12:58:53;1.97;;;1.37;;
2267;SDS011;11052;43.338;25.502;2023-11-21T13:01:25;1.10;;;0.90;;
2267;SDS011;11052;43.338;25.502;2023-11-21T13:03:56;1.30;;;1.20;;
2267;SDS011;11052;43.338;25.502;2023-11-21T13:06:26;0.90;;;0.70;;
2267;SDS011;11052;43.338;25.502;2023-11-21T13:08:58;1.10;;;0.80;;
2267;SDS011;11052;43.338;25.502;2023-11-21T13:11:25;1.40;;;1.13;;
2267;SDS011;11052;43.338;25.502;2023-11-21T13:13:57;1.00;;;0.90;;
2267;SDS011;11052;43.338;25.502;2023-11-21T13:16:26;2.20;;;1.00;;
2267;SDS011;11052;43.338;25.502;2023-11-21T13:18:53;1.43;;;0.87;;
2267;SDS011;11052;43.338;25.502;2023-11-21T13:21:20;0.90;;;0.70;;
2267;SDS011;11052;43.338;25.502;2023-11-21T13:23:49;2.67;;;1.17;;
2267;SDS011;11052;43.338;25.502;2023-11-21T13:26:18;1.13;;;0.83;;
2267;SDS011;11052;43.338;25.502;2023-11-21T13:28:48;0.90;;;0.70;;
2267;SDS011;11052;43.338;25.502;2023-11-21T13:31:15;0.90;;;0.60;;
2267;SDS011;11052;43.338;25.502;2023-11-21T13:33:52;1.10;;;0.87;;
2267;SDS011;11052;43.338;25.502;2023-11-21T13:36:24;1.10;;;0.80;;
2267;SDS011;11052;43.338;25.502;2023-11-21T13:38:57;2.17;;;1.47;;
2267;SDS011;11052;43.338;25.502;2023-11-21T13:41:24;1.77;;;1.63;;
2267;SDS011;11052;43.338;25.502;2023-11-21T13:43:55;3.30;;;2.03;;
2267;SDS011;11052;43.338;25.502;2023-11-21T13:46:31;3.33;;;2.10;;
2267;SDS011;11052;43.338;25.502;2023-11-21T13:49:02;1.80;;;1.50;;
2267;SDS011;11052;43.338;25.502;2023-11-21T13:51:35;1.20;;;0.77;;
2267;SDS011;11052;43.338;25.502;2023-11-21T13:54:08;3.37;;;0.70;;
2267;SDS011;11052;43.338;25.502;2023-11-21T13:56:35;1.43;;;1.00;;
2267;SDS011;11052;43.338;25.502;2023-11-21T13:59:04;1.43;;;0.97;;
2267;SDS011;11052;43.338;25.502;2023-11-21T14:01:39;1.27;;;0.80;;
2267;SDS011;11052;43.338;25.502;2023-11-21T14:04:20;1.80;;;1.47;;
2267;SDS011;11052;43.338;25.502;2023-11-21T14:07:00;2.63;;;2.13;;
2267;SDS011;11052;43.338;25.502;2023-11-21T14:09:45;1.40;;;1.10;;
2267;SDS011;11052;43.338;25.502;2023-11-21T14:12:14;1.37;;;1.00;;
2267;SDS011;11052;43.338;25.502;2023-11-21T14:14:42;3.53;;;1.47;;
2267;SDS011;11052;43.338;25.502;2023-11-21T14:17:10;1.70;;;0.80;;
2267;SDS011;11052;43.338;25.502;2023-11-21T14:19:37;2.03;;;1.37;;
2267;SDS011;11052;43.338;25.502;2023-11-21T14:22:08;1.50;;;0.73;;
2267;SDS011;11052;43.338;25.502;2023-11-21T14:24:36;1.10;;;0.90;;
2267;SDS011;11052;43.338;25.502;2023-11-21T14:27:10;1.20;;;1.10;;
2267;SDS011;11052;43.338;25.502;2023-11-21T14:29:37;3.23;;;1.00;;
2267;SDS011;11052;43.338;25.502;2023-11-21T14:32:08;2.80;;;1.20;;
2267;SDS011;11052;43.338;25.502;2023-11-21T14:34:36;1.73;;;1.20;;
2267;SDS011;11052;43.338;25.502;2023-11-21T14:37:03;2.53;;;1.77;;
2267;SDS011;11052;43.338;25.502;2023-11-21T14:39:30;2.70;;;2.40;;
2267;SDS011;11052;43.338;25.502;2023-11-21T14:42:03;5.23;;;2.80;;
2267;SDS011;11052;43.338;25.502;2023-11-21T14:44:34;3.90;;;3.60;;
2267;SDS011;11052;43.338;25.502;2023-11-21T14:47:06;1.83;;;1.57;;
2267;SDS011;11052;43.338;25.502;2023-11-21T14:49:40;2.43;;;2.17;;
2267;SDS011;11052;43.338;25.502;2023-11-21T14:52:17;3.43;;;2.80;;
2267;SDS011;11052;43.338;25.502;2023-11-21T14:54:57;3.83;;;1.73;;
2267;SDS011;11052;43.338;25.502;2023-11-21T14:57:45;2.13;;;1.07;;
2267;SDS011;11052;43.338;25.502;2023-11-21T15:00:17;1.63;;;1.30;;